Time;durP1;ratioP1;P1;durP2;ratioP2;P2;SDS_P1;SDS_P2;PMS_P1;PMS_P2;Temp;Humidity;BMP_temperature;BMP_pressure;BME280_temperature;BME280_humidity;BME280_pressure;Samples;Min_cycle;Max_cycle;Signal;HPM_P1;HPM_P2
2023/09/20 00:00:11;;;;;;;13.70;5.13;;;21.20;99.90;;;;;;4995173;28;20046;-77
2023/09/20 00:02:39;;;;;;;13.45;5.22;;;20.90;99.90;;;;;;4995285;28;20449;-77
2023/09/20 00:05:21;;;;;;;13.32;5.85;;;20.50;99.90;;;;;;4994735;28;20041;-76
2023/09/20 00:07:56;;;;;;;17.17;6.28;;;20.90;99.90;;;;;;4978346;28;20077;-77
2023/09/20 00:10:24;;;;;;;12.90;5.57;;;21.10;99.90;;;;;;4994727;28;20053;-77
2023/09/20 00:12:50;;;;;;;11.82;5.50;;;;;;;;;;4994698;28;20042;-76
2023/09/20 00:15:16;;;;;;;16.67;5.35;;;20.60;99.90;;;;;;5011043;28;20034;-77
2023/09/20 00:17:43;;;;;;;19.33;5.57;;;20.70;99.90;;;;;;4978208;28;20087;-77
2023/09/20 00:20:12;;;;;;;11.57;5.07;;;20.60;99.90;;;;;;4994567;28;20069;-77
2023/09/20 00:22:42;;;;;;;11.25;4.85;;;21.00;99.90;;;;;;4978671;28;20046;-77
2023/09/20 00:25:10;;;;;;;16.20;5.10;;;21.10;99.90;;;;;;4994711;28;20059;-76
2023/09/20 00:27:36;;;;;;;12.40;4.38;;;;;;;;;;4994335;28;20049;-76
2023/09/20 00:30:03;;;;;;;13.52;5.03;;;20.70;99.90;;;;;;4978186;28;20042;-76
2023/09/20 00:32:30;;;;;;;12.00;5.05;;;20.90;99.90;;;;;;4994491;28;20053;-77
2023/09/20 00:34:56;;;;;;;14.63;5.85;;;20.70;99.90;;;;;;4978296;28;20501;-77
2023/09/20 00:37:22;;;;;;;15.52;5.10;;;21.00;99.90;;;;;;4994738;28;20117;-77
2023/09/20 00:39:48;;;;;;;14.13;4.97;;;20.70;99.90;;;;;;4978134;28;20137;-77
2023/09/20 00:42:13;;;;;;;11.68;4.80;;;21.40;99.90;;;;;;4978462;28;20490;-77
2023/09/20 00:44:39;;;;;;;12.18;4.65;;;21.30;99.90;;;;;;4994706;28;20034;-77
2023/09/20 00:47:05;;;;;;;12.73;4.18;;;21.00;99.90;;;;;;4994250;28;20049;-77
2023/09/20 00:49:34;;;;;;;12.35;5.47;;;20.70;99.90;;;;;;4978172;28;20060;-77
2023/09/20 00:52:03;;;;;;;11.30;4.35;;;20.90;99.90;;;;;;4977908;28;20547;-76
2023/09/20 00:54:29;;;;;;;10.07;4.07;;;20.80;99.90;;;;;;4994254;28;20038;-76
2023/09/20 00:56:55;;;;;;;14.88;4.90;;;21.20;99.90;;;;;;4978131;28;20034;-77
2023/09/20 00:59:21;;;;;;;14.38;4.68;;;21.10;99.90;;;;;;4977952;28;20564;-76
2023/09/20 01:01:48;;;;;;;11.25;5.00;;;21.10;99.90;;;;;;4994258;28;20084;-77
2023/09/20 01:04:14;;;;;;;22.48;6.15;;;21.30;99.90;;;;;;4978069;28;20081;-77
2023/09/20 01:06:41;;;;;;;11.73;4.80;;;20.90;99.90;;;;;;4994115;28;20041;-77
2023/09/20 01:09:08;;;;;;;14.95;5.30;;;21.50;99.90;;;;;;4993743;28;20096;-77
2023/09/20 01:11:34;;;;;;;15.10;5.03;;;21.20;99.90;;;;;;4994175;28;20500;-77
2023/09/20 01:14:00;;;;;;;11.85;5.10;;;20.90;99.90;;;;;;4994131;28;20074;-77
2023/09/20 01:16:27;;;;;;;9.63;5.18;;;20.80;99.90;;;;;;4994018;28;20040;-77
2023/09/20 01:18:52;;;;;;;13.60;5.97;;;20.70;99.90;;;;;;4994052;28;20107;-77
2023/09/20 01:21:18;;;;;;;15.63;5.13;;;21.20;99.90;;;;;;4977738;28;20513;-77
2023/09/20 01:23:43;;;;;;;13.48;4.78;;;20.90;99.90;;;;;;4993880;28;20074;-77
2023/09/20 01:26:13;;;;;;;17.42;4.60;;;20.70;99.90;;;;;;4993947;28;20080;-77
2023/09/20 01:28:38;;;;;;;13.68;4.78;;;21.40;99.90;;;;;;4994019;28;20378;-77
2023/09/20 01:31:07;;;;;;;14.70;4.50;;;21.00;99.90;;;;;;4993833;28;20045;-77
2023/09/20 01:33:33;;;;;;;10.27;4.22;;;21.00;99.90;;;;;;4993893;28;20128;-77
2023/09/20 01:35:59;;;;;;;14.50;4.13;;;;;;;;;;4993802;28;20049;-77
2023/09/20 01:38:28;;;;;;;13.13;3.85;;;21.00;99.90;;;;;;5009952;28;20034;-77
2023/09/20 01:40:58;;;;;;;15.77;4.18;;;21.00;99.90;;;;;;4977979;28;20042;-76
2023/09/20 01:43:24;;;;;;;13.82;4.43;;;21.30;99.90;;;;;;4993837;28;20524;-77
2023/09/20 01:45:50;;;;;;;12.48;4.22;;;21.10;99.90;;;;;;4994079;28;20417;-77
2023/09/20 01:48:16;;;;;;;11.45;4.15;;;21.00;99.90;;;;;;4993579;28;20042;-77
2023/09/20 01:50:42;;;;;;;13.38;4.47;;;21.50;99.90;;;;;;4993597;28;20046;-77
2023/09/20 01:53:10;;;;;;;13.73;4.82;;;21.30;99.90;;;;;;4993938;28;20040;-77
2023/09/20 01:55:37;;;;;;;13.98;5.03;;;21.40;99.90;;;;;;4993688;28;20042;-77
2023/09/20 01:58:06;;;;;;;14.23;5.30;;;21.50;99.90;;;;;;4995390;28;20123;-77
2023/09/20 02:00:32;;;;;;;10.60;4.00;;;20.90;99.90;;;;;;4997330;28;20054;-76
2023/09/20 02:03:08;;;;;;;15.10;4.07;;;21.50;99.90;;;;;;4997218;28;20050;-76
2023/09/20 02:05:34;;;;;;;8.18;3.90;;;21.20;99.90;;;;;;4981167;28;20044;-77
2023/09/20 02:08:00;;;;;;;17.17;4.65;;;21.40;99.90;;;;;;4980636;28;20043;-77
2023/09/20 02:10:25;;;;;;;12.63;3.75;;;21.40;99.90;;;;;;4980665;28;20100;-77
2023/09/20 02:12:56;;;;;;;13.45;4.53;;;21.10;99.90;;;;;;4997040;28;20042;-77
2023/09/20 02:15:23;;;;;;;12.63;4.63;;;21.40;99.90;;;;;;4996928;28;20038;-77
2023/09/20 02:17:50;;;;;;;11.30;4.40;;;21.00;99.90;;;;;;4980446;28;20033;-77
2023/09/20 02:20:19;;;;;;;13.90;4.93;;;21.40;99.90;;;;;;4997031;28;20509;-77
2023/09/20 02:22:47;;;;;;;12.98;4.68;;;21.20;99.90;;;;;;4997024;28;20049;-77
2023/09/20 02:25:14;;;;;;;10.00;4.65;;;21.40;99.90;;;;;;4996745;28;20045;-77
2023/09/20 02:27:42;;;;;;;12.57;3.92;;;20.90;99.90;;;;;;4996366;28;20050;-77
2023/09/20 02:30:15;;;;;;;15.35;5.20;;;20.90;99.90;;;;;;4996439;28;20038;-76
2023/09/20 02:32:44;;;;;;;12.68;4.70;;;21.00;99.90;;;;;;4980696;28;20398;-77
2023/09/20 02:35:10;;;;;;;10.52;4.22;;;21.00;99.90;;;;;;4996577;28;20087;-77
2023/09/20 02:37:37;;;;;;;9.93;4.30;;;20.90;99.90;;;;;;4996268;28;20442;-76
2023/09/20 02:40:13;;;;;;;11.80;3.85;;;20.90;99.90;;;;;;4979930;28;20046;-77
2023/09/20 02:42:45;;;;;;;15.95;4.72;;;21.30;99.90;;;;;;4980112;28;20184;-77
2023/09/20 02:45:22;;;;;;;10.52;3.45;;;21.40;99.90;;;;;;4996458;28;20545;-77
2023/09/20 02:47:48;;;;;;;8.13;3.97;;;20.90;99.90;;;;;;4996067;28;20049;-77
2023/09/20 02:50:19;;;;;;;13.10;3.97;;;20.90;99.90;;;;;;4996173;28;20042;-76
2023/09/20 02:52:47;;;;;;;10.57;4.38;;;21.10;99.90;;;;;;4980063;28;20045;-77
2023/09/20 02:55:17;;;;;;;17.92;4.95;;;21.10;99.90;;;;;;4996091;28;20125;-77
2023/09/20 02:57:50;;;;;;;13.27;4.10;;;21.30;99.90;;;;;;4996209;28;20066;-77
2023/09/20 03:00:21;;;;;;;9.38;3.58;;;21.40;99.90;;;;;;4996004;28;20165;-77
2023/09/20 03:02:49;;;;;;;10.85;3.80;;;21.20;99.90;;;;;;4996075;28;20209;-77
2023/09/20 03:05:21;;;;;;;10.38;3.72;;;21.30;99.90;;;;;;4995975;28;20045;-77
2023/09/20 03:07:49;;;;;;;14.52;4.25;;;21.10;99.90;;;;;;4995697;28;20052;-77
2023/09/20 03:10:19;;;;;;;15.13;3.90;;;21.00;99.90;;;;;;4994732;28;20084;-77
2023/09/20 03:12:46;;;;;;;10.45;3.38;;;21.40;99.90;;;;;;4996040;28;20034;-77
2023/09/20 03:15:17;;;;;;;12.80;4.55;;;21.20;99.90;;;;;;4979695;28;20124;-77
2023/09/20 03:17:53;;;;;;;12.18;4.00;;;21.00;99.90;;;;;;4979409;28;20034;-77
2023/09/20 03:20:23;;;;;;;7.38;4.00;;;20.90;99.90;;;;;;4995591;28;20497;-77
2023/09/20 03:22:59;;;;;;;7.53;4.13;;;21.20;99.90;;;;;;4995663;28;20038;-77
2023/09/20 03:25:28;;;;;;;8.82;3.47;;;21.00;99.90;;;;;;4995678;28;20037;-77
2023/09/20 03:27:55;;;;;;;6.78;3.80;;;21.40;99.90;;;;;;4995349;28;20037;-77
2023/09/20 03:30:20;;;;;;;11.68;3.67;;;21.40;99.90;;;;;;4995654;28;20034;-76
2023/09/20 03:32:50;;;;;;;14.15;3.80;;;21.10;99.90;;;;;;4995524;28;20049;-77
2023/09/20 03:35:19;;;;;;;7.13;3.58;;;21.40;99.90;;;;;;4979620;28;20045;-76
2023/09/20 03:37:46;;;;;;;12.95;3.97;;;21.10;99.90;;;;;;4995474;28;20034;-77
2023/09/20 03:40:17;;;;;;;11.80;3.80;;;21.30;99.90;;;;;;4979198;28;20041;-76
2023/09/20 03:42:43;;;;;;;14.63;4.78;;;21.00;99.90;;;;;;4995836;28;20053;-77
2023/09/20 03:45:10;;;;;;;13.18;4.43;;;21.30;99.90;;;;;;4995391;28;20069;-77
2023/09/20 03:47:40;;;;;;;10.57;4.72;;;21.30;99.90;;;;;;4994877;28;20046;-76
2023/09/20 03:50:09;;;;;;;12.57;4.30;;;21.20;99.90;;;;;;4995172;28;20050;-77
2023/09/20 03:52:41;;;;;;;13.32;4.28;;;20.90;99.90;;;;;;4979136;28;20034;-77
2023/09/20 03:55:07;;;;;;;10.65;3.78;;;21.20;99.90;;;;;;4995174;28;20552;-77
2023/09/20 03:57:34;;;;;;;10.38;3.88;;;20.90;99.90;;;;;;4994880;28;20061;-77
2023/09/20 04:00:00;;;;;;;12.15;4.55;;;21.20;99.90;;;;;;4978768;28;20073;-77
2023/09/20 04:02:28;;;;;;;9.63;4.05;;;21.20;99.90;;;;;;4979007;28;20146;-76
2023/09/20 04:04:55;;;;;;;12.63;4.00;;;21.20;99.90;;;;;;4994906;28;20092;-77
2023/09/20 04:07:26;;;;;;;10.80;4.00;;;20.90;99.90;;;;;;4994844;28;20064;-76
2023/09/20 04:09:52;;;;;;;11.57;4.20;;;20.90;99.90;;;;;;4978437;28;20125;-77
2023/09/20 04:12:17;;;;;;;12.95;5.00;;;20.80;99.90;;;;;;4994890;28;20085;-76
2023/09/20 04:14:43;;;;;;;13.88;4.53;;;21.30;99.90;;;;;;4978537;28;20030;-77
2023/09/20 04:17:08;;;;;;;9.98;3.90;;;20.80;99.90;;;;;;4994975;28;20042;-77
2023/09/20 04:19:34;;;;;;;14.55;4.32;;;20.80;99.90;;;;;;4994422;28;20096;-77
2023/09/20 04:22:04;;;;;;;12.48;4.93;;;20.70;99.90;;;;;;4978090;28;20096;-77
2023/09/20 04:24:33;;;;;;;9.30;3.72;;;20.60;99.90;;;;;;4978368;28;20054;-77
2023/09/20 04:26:59;;;;;;;16.80;4.60;;;20.70;99.90;;;;;;4978246;28;20037;-76
2023/09/20 04:29:28;;;;;;;13.63;4.20;;;20.90;99.90;;;;;;4994503;28;20497;-77
2023/09/20 04:31:55;;;;;;;9.30;4.00;;;20.60;99.90;;;;;;4994666;28;20037;-77
2023/09/20 04:34:21;;;;;;;12.25;4.20;;;20.80;99.90;;;;;;4994674;28;20441;-77
2023/09/20 04:36:47;;;;;;;13.02;4.15;;;20.90;99.90;;;;;;4994391;28;20077;-77
2023/09/20 04:39:14;;;;;;;12.90;3.90;;;20.70;99.90;;;;;;5011920;28;20528;-77
2023/09/20 04:41:39;;;;;;;10.23;4.10;;;20.80;99.90;;;;;;4994144;28;20081;-76
2023/09/20 04:44:05;;;;;;;7.45;3.63;;;20.90;99.90;;;;;;4978261;28;20070;-76
2023/09/20 04:46:35;;;;;;;8.88;4.18;;;20.90;99.90;;;;;;4994279;28;20037;-77
2023/09/20 04:49:05;;;;;;;10.90;4.07;;;20.50;99.90;;;;;;4978042;28;20034;-77
2023/09/20 04:51:31;;;;;;;12.88;4.30;;;20.60;99.90;;;;;;4977957;28;20046;-77
2023/09/20 04:53:57;;;;;;;9.18;3.80;;;20.70;99.90;;;;;;4994204;28;20386;-77
2023/09/20 04:56:24;;;;;;;15.48;4.35;;;20.40;99.90;;;;;;4994290;28;20041;-77
2023/09/20 04:58:50;;;;;;;12.93;4.10;;;20.40;99.90;;;;;;4994221;28;20375;-77
2023/09/20 05:01:17;;;;;;;12.30;4.40;;;20.70;99.90;;;;;;4977856;28;20053;-77
2023/09/20 05:03:43;;;;;;;9.65;3.80;;;20.60;99.90;;;;;;4994181;28;20050;-77
2023/09/20 05:06:09;;;;;;;11.60;4.15;;;20.40;99.90;;;;;;4994486;28;20433;-77
2023/09/20 05:08:36;;;;;;;15.07;4.55;;;20.70;99.90;;;;;;4993832;28;20037;-76
2023/09/20 05:11:04;;;;;;;10.55;4.30;;;20.70;99.90;;;;;;4993965;28;20057;-77
2023/09/20 05:13:29;;;;;;;12.23;5.10;;;20.60;99.90;;;;;;4994621;28;20038;-77
2023/09/20 05:15:55;;;;;;;12.00;3.90;;;20.40;99.90;;;;;;4978097;28;20045;-77
2023/09/20 05:18:21;;;;;;;10.13;3.60;;;20.40;99.90;;;;;;4993710;28;20038;-77
2023/09/20 05:20:47;;;;;;;10.93;3.90;;;20.80;99.90;;;;;;4977699;28;20298;-76
2023/09/20 05:23:13;;;;;;;9.68;4.15;;;20.50;99.90;;;;;;4993941;28;20133;-77
2023/09/20 05:25:39;;;;;;;11.50;4.07;;;20.30;99.90;;;;;;4977773;28;20049;-77
2023/09/20 05:28:05;;;;;;;18.77;5.40;;;20.30;99.90;;;;;;4993810;28;20461;-77
2023/09/20 05:30:32;;;;;;;9.60;4.20;;;20.30;99.90;;;;;;4977747;28;20084;-77
2023/09/20 05:32:59;;;;;;;8.57;3.53;;;20.50;99.90;;;;;;4995686;28;20041;-77
2023/09/20 05:35:28;;;;;;;11.55;3.85;;;20.70;99.90;;;;;;4997706;28;20048;-77
2023/09/20 05:37:54;;;;;;;13.60;3.92;;;20.70;99.90;;;;;;4997312;28;20042;-77
2023/09/20 05:40:21;;;;;;;10.63;4.10;;;20.60;99.90;;;;;;4981359;28;20042;-76
2023/09/20 05:42:47;;;;;;;10.85;3.58;;;20.70;99.90;;;;;;4981647;28;20034;-77
2023/09/20 05:45:14;;;;;;;12.45;4.22;;;20.40;99.90;;;;;;4981297;28;20038;-77
2023/09/20 05:47:40;;;;;;;11.32;3.97;;;20.60;99.90;;;;;;4997129;28;20041;-76
2023/09/20 05:50:10;;;;;;;14.10;3.80;;;20.60;99.90;;;;;;4997189;28;20097;-77
2023/09/20 05:52:40;;;;;;;7.57;3.90;;;20.50;99.90;;;;;;4981206;28;20141;-77
2023/09/20 05:55:08;;;;;;;11.85;3.70;;;20.80;99.90;;;;;;4989165;28;20038;-77
2023/09/20 05:57:34;;;;;;;9.48;3.50;;;;;;;;;;4999735;28;20631;-77
2023/09/20 06:00:09;;;;;;;9.15;4.63;;;20.50;99.90;;;;;;5004660;28;20159;-77
2023/09/20 06:02:35;;;;;;;7.28;3.42;;;;;;;;;;4968689;28;20049;-77
2023/09/20 06:05:00;;;;;;;9.73;3.58;;;20.30;99.90;;;;;;4987707;28;20038;-77
2023/09/20 06:07:27;;;;;;;9.70;3.60;;;20.70;99.90;;;;;;4972086;28;20042;-76
2023/09/20 06:09:53;;;;;;;19.25;4.32;;;20.80;99.90;;;;;;4975785;28;20052;-76
2023/09/20 06:12:19;;;;;;;10.27;3.85;;;;;;;;;;5006248;28;20042;-76
2023/09/20 06:14:45;;;;;;;9.77;3.65;;;;;;;;;;4969284;28;20035;-76
2023/09/20 06:17:12;;;;;;;13.00;3.85;;;20.50;99.90;;;;;;4993960;28;20041;-76
2023/09/20 06:19:38;;;;;;;8.32;3.20;;;20.70;99.90;;;;;;4992283;28;20333;-75
2023/09/20 06:22:03;;;;;;;12.57;3.47;;;20.60;99.90;;;;;;4971085;28;20417;-77
2023/09/20 06:24:29;;;;;;;8.18;2.95;;;;;;;;;;4966945;28;20044;-75
2023/09/20 06:26:55;;;;;;;13.93;3.53;;;21.00;99.90;;;;;;4986170;28;20042;-82
2023/09/20 06:29:21;;;;;;;8.70;3.28;;;;;;;;;;5002773;28;20041;-82
2023/09/20 06:31:47;;;;;;;5.68;3.20;;;21.00;99.90;;;;;;5018510;28;20037;-83
2023/09/20 06:34:17;;;;;;;7.97;3.50;;;20.70;99.90;;;;;;5027887;28;20084;-83
2023/09/20 06:36:43;;;;;;;16.35;4.07;;;;;;;;;;5001039;28;20034;-75
2023/09/20 06:39:09;;;;;;;9.95;3.30;;;20.80;99.90;;;;;;5034138;28;20037;-80
2023/09/20 06:41:34;;;;;;;6.50;3.25;;;20.60;99.90;;;;;;5016295;28;20059;-81
2023/09/20 06:44:00;;;;;;;7.35;3.35;;;20.90;99.90;;;;;;4999122;28;20041;-83
2023/09/20 06:46:25;;;;;;;8.25;3.03;;;20.90;99.90;;;;;;4985873;28;20037;-84
2023/09/20 06:48:52;;;;;;;5.95;3.13;;;20.90;99.90;;;;;;5016907;28;20042;-84
2023/09/20 06:51:17;;;;;;;8.82;2.97;;;20.80;99.90;;;;;;5016047;28;20045;-79
2023/09/20 06:53:44;;;;;;;8.07;3.60;;;20.70;99.90;;;;;;5016324;28;20038;-79
2023/09/20 06:56:10;;;;;;;7.68;2.97;;;20.60;99.90;;;;;;5017036;28;20038;-79
2023/09/20 06:58:38;;;;;;;8.85;3.20;;;20.80;99.90;;;;;;4985608;28;20605;-78
2023/09/20 07:01:05;;;;;;;7.53;3.85;;;21.10;99.90;;;;;;5001889;28;20425;-83
2023/09/20 07:03:32;;;;;;;10.45;3.40;;;20.70;99.90;;;;;;5007162;28;20088;-82
2023/09/20 07:05:58;;;;;;;6.43;3.05;;;20.90;99.90;;;;;;5000809;28;20461;-83
2023/09/20 07:08:23;;;;;;;13.70;3.35;;;20.80;99.90;;;;;;5002879;28;20136;-81
2023/09/20 07:10:50;;;;;;;8.70;3.15;;;20.90;99.90;;;;;;5001822;28;20048;-81
2023/09/20 07:13:18;;;;;;;8.75;3.88;;;;;;;;;;5001811;28;20395;-81
2023/09/20 07:15:44;;;;;;;7.85;2.80;;;20.70;99.90;;;;;;4984299;28;20234;-82
2023/09/20 07:18:12;;;;;;;8.13;2.97;;;21.10;99.90;;;;;;5001263;28;20041;-82
2023/09/20 07:20:40;;;;;;;9.57;3.13;;;20.80;99.90;;;;;;5003844;28;20042;-83
2023/09/20 07:23:09;;;;;;;10.35;3.13;;;20.90;99.90;;;;;;4995547;28;20049;-82
2023/09/20 07:25:38;;;;;;;10.30;4.03;;;21.30;99.90;;;;;;4992093;28;20042;-82
2023/09/20 07:28:06;;;;;;;8.68;3.50;;;21.20;99.90;;;;;;5023788;28;20421;-83
2023/09/20 07:30:39;;;;;;;5.78;2.90;;;21.20;99.90;;;;;;5002084;28;20454;-82
2023/09/20 07:33:11;;;;;;;8.95;3.15;;;21.20;99.90;;;;;;5002698;28;20080;-82
2023/09/20 07:35:46;;;;;;;6.78;2.92;;;21.10;99.90;;;;;;5003410;28;20030;-83
2023/09/20 07:38:18;;;;;;;9.05;3.13;;;21.60;99.90;;;;;;4984797;28;20512;-82
2023/09/20 07:40:44;;;;;;;10.60;3.30;;;21.20;99.90;;;;;;4993084;28;20143;-82
2023/09/20 07:43:10;;;;;;;10.18;3.92;;;21.40;99.90;;;;;;4993990;28;20038;-82
2023/09/20 07:45:39;;;;;;;8.45;3.38;;;21.70;99.90;;;;;;4994027;28;20050;-82
2023/09/20 07:48:13;;;;;;;5.57;3.30;;;21.80;99.90;;;;;;4976913;28;20405;-82
2023/09/20 07:50:40;;;;;;;7.45;3.05;;;21.70;99.90;;;;;;4983027;28;20101;-82
2023/09/20 07:53:10;;;;;;;7.97;3.25;;;21.90;99.90;;;;;;4967277;28;20053;-81
2023/09/20 07:55:37;;;;;;;7.18;3.10;;;21.80;99.90;;;;;;4982565;28;20038;-82
2023/09/20 07:58:03;;;;;;;12.20;3.40;;;21.90;99.90;;;;;;4982957;28;20089;-81
2023/09/20 08:00:29;;;;;;;8.35;3.60;;;;;;;;;;4975301;28;20042;-74
2023/09/20 08:02:54;;;;;;;6.97;3.47;;;21.70;99.90;;;;;;5016463;28;20489;-82
2023/09/20 08:05:22;;;;;;;8.45;3.90;;;21.90;99.90;;;;;;4987966;28;20046;-82
2023/09/20 08:07:48;;;;;;;8.65;3.38;;;21.80;99.90;;;;;;5002349;28;20050;-81
2023/09/20 08:10:13;;;;;;;8.60;3.40;;;22.00;99.90;;;;;;5001709;28;20045;-81
2023/09/20 08:12:39;;;;;;;5.40;3.08;;;21.90;99.90;;;;;;4985009;28;20034;-82
2023/09/20 08:15:05;;;;;;;9.15;2.97;;;21.90;99.90;;;;;;5018621;28;20046;-82
2023/09/20 08:20:16;;;;;;;9.43;3.65;;;22.20;99.90;;;;;;5000393;28;20246;-82
2023/09/20 09:01:12;;;;;;;6.78;3.25;;;21.60;99.90;;;;;;5005575;28;20050;-82
2023/09/20 09:03:41;;;;;;;9.50;4.63;;;21.90;99.90;;;;;;4991773;28;20074;-82
2023/09/20 09:06:07;;;;;;;9.48;3.72;;;22.00;99.90;;;;;;4991323;28;20047;-83
2023/09/20 09:08:34;;;;;;;9.38;4.25;;;21.60;99.90;;;;;;4999005;28;20168;-82
2023/09/20 09:10:59;;;;;;;8.73;3.97;;;21.60;99.90;;;;;;4992298;28;20049;-84
2023/09/20 09:13:25;;;;;;;11.27;4.65;;;21.70;99.90;;;;;;4973480;28;20035;-83
2023/09/20 09:15:51;;;;;;;7.57;3.40;;;21.90;99.90;;;;;;4991959;28;20490;-82
2023/09/20 09:18:18;;;;;;;8.45;4.65;;;21.70;99.90;;;;;;4984846;28;20030;-82
2023/09/20 09:20:45;;;;;;;10.68;4.15;;;21.70;99.90;;;;;;4990080;28;20034;-82
2023/09/20 09:23:11;;;;;;;8.43;4.00;;;21.90;99.90;;;;;;4992472;28;20049;-82
2023/09/20 09:25:37;;;;;;;9.63;4.15;;;21.80;99.90;;;;;;5009339;28;20042;-82
2023/09/20 09:28:02;;;;;;;9.02;4.13;;;21.90;99.90;;;;;;4965154;28;20461;-83
2023/09/20 09:30:31;;;;;;;8.23;4.05;;;21.70;99.90;;;;;;4966369;28;20670;-82
2023/09/20 09:32:57;;;;;;;8.40;3.92;;;21.90;99.90;;;;;;5017806;28;20038;-82
2023/09/20 09:35:23;;;;;;;10.43;4.57;;;21.90;99.90;;;;;;4973930;28;20061;-81
2023/09/20 09:37:50;;;;;;;10.45;4.40;;;21.90;99.90;;;;;;4990317;28;20429;-79
2023/09/20 09:40:15;;;;;;;6.60;3.97;;;22.10;99.90;;;;;;4966630;28;20038;-80
2023/09/20 09:42:44;;;;;;;11.52;4.93;;;22.10;99.90;;;;;;4982024;28;20045;-79
2023/09/20 09:45:10;;;;;;;7.28;4.38;;;22.20;99.90;;;;;;4982205;28;20034;-80
2023/09/20 09:47:37;;;;;;;5.95;4.57;;;22.10;99.90;;;;;;4981265;28;20500;-79
2023/09/20 09:50:06;;;;;;;6.43;4.20;;;22.00;99.90;;;;;;4997980;28;20066;-79
2023/09/20 09:52:36;;;;;;;8.85;4.63;;;22.30;99.90;;;;;;4981583;28;20057;-80
2023/09/20 09:55:02;;;;;;;10.63;4.90;;;22.40;99.90;;;;;;4999783;28;20433;-79
2023/09/20 09:57:28;;;;;;;9.10;4.97;;;22.50;99.90;;;;;;4982028;28;20038;-80
2023/09/20 09:59:54;;;;;;;8.30;4.72;;;22.70;99.90;;;;;;4966067;28;20046;-80
2023/09/20 10:02:21;;;;;;;7.20;4.72;;;22.60;99.90;;;;;;4965577;28;20042;-80
2023/09/20 10:05:01;;;;;;;6.88;5.03;;;22.60;99.90;;;;;;4982277;28;20050;-80
2023/09/20 10:07:33;;;;;;;11.88;4.90;;;22.70;99.90;;;;;;4966043;28;20097;-80
2023/09/20 10:10:08;;;;;;;5.38;4.88;;;22.60;99.90;;;;;;4965229;28;20042;-82
2023/09/20 10:12:35;;;;;;;6.57;4.93;;;22.60;99.90;;;;;;4988910;28;20258;-82
2023/09/20 10:15:07;;;;;;;7.18;4.95;;;22.20;99.90;;;;;;4998334;28;20401;-84
2023/09/20 10:17:34;;;;;;;11.48;5.90;;;22.40;99.90;;;;;;4999222;28;20084;-83
2023/09/20 10:20:07;;;;;;;6.10;4.45;;;22.30;99.90;;;;;;5001007;28;20052;-81
2023/09/20 10:22:40;;;;;;;11.60;4.63;;;22.60;99.90;;;;;;5018441;28;20048;-80
2023/09/20 10:25:28;;;;;;;6.97;4.13;;;22.30;99.90;;;;;;5002227;28;20096;-80
2023/09/20 10:27:54;;;;;;;7.93;4.63;;;22.20;99.90;;;;;;5015620;28;20489;-80
2023/09/20 10:30:21;;;;;;;7.88;4.90;;;22.40;99.90;;;;;;4997849;28;20059;-74
2023/09/20 10:33:04;;;;;;;7.28;4.40;;;22.10;99.90;;;;;;5008919;28;20037;-80
2023/09/20 10:35:32;;;;;;;6.05;4.30;;;22.40;99.90;;;;;;4995266;28;20044;-80
2023/09/20 10:38:07;;;;;;;9.02;5.47;;;22.30;99.90;;;;;;4982368;28;20042;-81
2023/09/20 10:40:45;;;;;;;6.47;5.30;;;22.20;99.90;;;;;;4991833;28;20068;-80
2023/09/20 10:43:13;;;;;;;8.18;5.20;;;22.20;99.90;;;;;;4993488;28;20041;-79
2023/09/20 10:45:39;;;;;;;7.07;5.10;;;22.20;99.90;;;;;;4992591;28;20038;-81
2023/09/20 10:48:12;;;;;;;7.47;5.13;;;22.40;99.90;;;;;;4993278;28;20038;-81
2023/09/20 10:50:57;;;;;;;7.13;5.03;;;22.20;99.90;;;;;;4965414;28;20042;-84
2023/09/20 10:53:52;;;;;;;9.57;5.03;;;22.10;99.90;;;;;;4983795;28;20077;-81
2023/09/20 10:56:43;;;;;;;13.00;5.70;;;22.10;99.90;;;;;;4993942;28;20042;-82
2023/09/20 10:59:16;;;;;;;6.47;4.88;;;22.20;99.90;;;;;;4985553;28;20046;-82
2023/09/20 11:02:05;;;;;;;8.82;4.80;;;22.30;99.90;;;;;;4991247;28;20044;-81
2023/09/20 11:04:32;;;;;;;9.27;5.50;;;22.30;99.90;;;;;;4977842;28;20069;-83
2023/09/20 11:06:59;;;;;;;7.03;5.13;;;22.10;99.90;;;;;;4992409;28;20133;-82
2023/09/20 11:09:30;;;;;;;9.65;5.30;;;22.30;99.90;;;;;;4997141;28;20053;-83
2023/09/20 11:12:06;;;;;;;7.57;5.43;;;22.20;99.90;;;;;;4984068;28;20034;-82
2023/09/20 11:14:33;;;;;;;6.97;5.47;;;21.10;99.90;;;;;;4974509;28;20710;-82
2023/09/20 11:17:00;;;;;;;9.57;5.18;;;22.40;99.90;;;;;;4980332;28;20030;-83
2023/09/20 11:19:26;;;;;;;6.63;5.93;;;22.40;99.90;;;;;;4999027;28;20042;-83
2023/09/20 11:21:53;;;;;;;5.88;4.95;;;22.40;99.90;;;;;;4991653;28;20062;-83
2023/09/20 11:24:19;;;;;;;9.00;5.80;;;22.30;99.90;;;;;;5007333;28;20042;-84
2023/09/20 11:26:48;;;;;;;7.43;6.03;;;22.40;99.90;;;;;;4991786;28;20397;-84
2023/09/20 11:29:16;;;;;;;7.72;6.00;;;22.40;99.90;;;;;;5004514;28;20402;-85
2023/09/20 11:31:45;;;;;;;10.30;5.70;;;22.50;99.90;;;;;;5005115;28;20049;-87
2023/09/20 11:34:11;;;;;;;6.95;6.25;;;22.50;99.90;;;;;;5003731;28;20052;-83
2023/09/20 11:36:44;;;;;;;9.27;6.25;;;22.60;99.90;;;;;;4978526;28;20042;-78
2023/09/20 11:39:14;;;;;;;11.18;5.68;;;22.70;99.90;;;;;;4960110;28;20035;-75
2023/09/20 11:41:43;;;;;;;7.13;5.88;;;22.80;99.90;;;;;;4959711;28;20149;-75
2023/09/20 11:44:09;;;;;;;10.38;6.15;;;22.80;99.90;;;;;;4975671;28;20050;-76
2023/09/20 11:46:35;;;;;;;12.50;6.43;;;24.10;99.90;;;;;;4975980;28;20141;-75
2023/09/20 11:49:05;;;;;;;7.30;5.88;;;22.70;99.90;;;;;;4975498;28;20095;-76
2023/09/20 11:51:34;;;;;;;9.98;5.55;;;22.90;99.90;;;;;;4975570;28;20125;-75
2023/09/20 11:54:00;;;;;;;7.60;5.13;;;22.60;99.90;;;;;;4976053;28;20108;-75
2023/09/20 11:56:32;;;;;;;7.60;5.05;;;22.90;99.90;;;;;;4975920;28;20034;-75
2023/09/20 11:59:05;;;;;;;7.93;5.40;;;22.80;99.90;;;;;;4975476;28;20121;-76
2023/09/20 12:01:32;;;;;;;6.43;4.57;;;22.70;99.90;;;;;;4975604;28;20042;-76
2023/09/20 12:04:02;;;;;;;6.15;4.32;;;22.60;99.90;;;;;;4975660;28;20046;-75
2023/09/20 12:06:29;;;;;;;7.03;3.92;;;22.50;99.90;;;;;;4975499;28;20041;-76
2023/09/20 12:08:55;;;;;;;8.43;4.70;;;22.50;99.90;;;;;;4991567;28;20034;-76
2023/09/20 12:11:21;;;;;;;10.45;5.38;;;22.60;99.90;;;;;;4975360;28;20042;-76
2023/09/20 12:13:47;;;;;;;12.02;4.60;;;22.60;99.90;;;;;;4975537;28;20465;-76
2023/09/20 12:16:17;;;;;;;7.50;4.30;;;22.50;99.90;;;;;;4959511;28;20034;-76
2023/09/20 12:18:43;;;;;;;12.88;4.95;;;23.20;99.90;;;;;;4975077;28;20549;-75
2023/09/20 12:21:10;;;;;;;10.65;5.18;;;22.70;99.90;;;;;;4975465;28;20077;-75
2023/09/20 12:23:39;;;;;;;7.68;4.55;;;22.50;99.90;;;;;;4975471;28;20038;-76
2023/09/20 12:26:05;;;;;;;6.53;4.25;;;22.70;99.90;;;;;;4991184;28;20494;-76
2023/09/20 12:28:31;;;;;;;9.52;4.20;;;23.00;99.90;;;;;;4975802;28;20149;-76
2023/09/20 12:30:58;;;;;;;5.30;4.32;;;23.20;99.90;;;;;;4976109;28;20107;-76
2023/09/20 12:33:25;;;;;;;7.63;4.80;;;22.80;99.90;;;;;;4959626;28;20434;-76
2023/09/20 12:35:54;;;;;;;7.68;5.70;;;22.80;99.90;;;;;;4975028;28;20045;-76
2023/09/20 12:38:20;;;;;;;7.20;4.80;;;22.70;99.90;;;;;;4958637;28;20137;-75
2023/09/20 12:40:47;;;;;;;7.68;5.40;;;23.00;99.90;;;;;;4974701;28;20036;-76
2023/09/20 12:43:15;;;;;;;11.63;5.40;;;23.70;99.90;;;;;;4975036;28;20046;-76
2023/09/20 12:45:42;;;;;;;7.10;4.88;;;23.00;99.90;;;;;;4974955;28;20043;-76
2023/09/20 12:48:08;;;;;;;13.32;5.38;;;23.00;99.90;;;;;;4958594;28;20437;-76
2023/09/20 12:50:36;;;;;;;9.77;5.80;;;23.00;99.90;;;;;;4974883;28;20418;-76
2023/09/20 12:53:09;;;;;;;10.68;5.88;;;23.00;99.90;;;;;;4975329;28;20414;-76
2023/09/20 12:55:37;;;;;;;7.15;5.03;;;22.90;99.90;;;;;;4991065;28;20049;-76
2023/09/20 12:58:04;;;;;;;8.75;4.43;;;23.40;99.90;;;;;;4958505;28;20043;-76
2023/09/20 13:00:31;;;;;;;9.13;4.35;;;23.40;99.90;;;;;;4974762;28;20048;-76
2023/09/20 13:02:57;;;;;;;7.07;4.45;;;23.30;99.90;;;;;;4974831;28;20050;-76
2023/09/20 13:05:23;;;;;;;8.48;4.30;;;23.40;99.90;;;;;;4974986;28;20046;-76
2023/09/20 13:07:48;;;;;;;7.32;3.78;;;23.50;99.90;;;;;;4974341;28;20053;-76
2023/09/20 13:10:14;;;;;;;6.22;3.88;;;23.40;99.90;;;;;;4974576;28;20065;-76
2023/09/20 13:12:41;;;;;;;5.85;3.92;;;23.50;99.90;;;;;;4974924;28;20050;-76
2023/09/20 13:15:14;;;;;;;4.30;3.53;;;23.50;99.90;;;;;;4974964;28;20130;-76
2023/09/20 13:17:43;;;;;;;5.55;3.67;;;23.80;99.90;;;;;;4974685;28;20046;-76
2023/09/20 13:20:12;;;;;;;10.35;3.95;;;24.70;99.90;;;;;;4974678;28;20465;-76
2023/09/20 13:22:42;;;;;;;9.45;4.25;;;23.80;99.90;;;;;;4974587;28;20050;-76
2023/09/20 13:25:08;;;;;;;7.45;4.05;;;23.60;99.90;;;;;;4958483;28;20057;-76
2023/09/20 13:27:35;;;;;;;5.70;3.05;;;23.80;99.90;;;;;;4974546;28;20042;-76
2023/09/20 13:30:01;;;;;;;7.25;3.13;;;23.60;99.90;;;;;;4974165;28;20113;-76